sensor_id;sensor_type;location;lat;lon;timestamp;P1;durP1;ratioP1;P2;durP2;ratioP2
2001;SDS011;1003;48.002;7.788;2022-07-21T00:00:16;12.77;;;8.87;;
2001;SDS011;1003;48.002;7.788;2022-07-21T00:02:46;12.97;;;9.57;;
2001;SDS011;1003;48.002;7.788;2022-07-21T00:05:15;13.97;;;9.37;;
2001;SDS011;1003;48.002;7.788;2022-07-21T00:07:42;11.77;;;8.60;;
2001;SDS011;1003;48.002;7.788;2022-07-21T00:10:10;17.27;;;10.83;;
2001;SDS011;1003;48.002;7.788;2022-07-21T00:12:39;17.97;;;11.23;;
2001;SDS011;1003;48.002;7.788;2022-07-21T00:15:07;16.53;;;12.37;;
2001;SDS011;1003;48.002;7.788;2022-07-21T00:17:36;17.27;;;10.80;;
2001;SDS011;1003;48.002;7.788;2022-07-21T00:20:04;16.27;;;11.73;;
2001;SDS011;1003;48.002;7.788;2022-07-21T00:22:35;18.53;;;10.90;;
2001;SDS011;1003;48.002;7.788;2022-07-21T00:25:02;15.73;;;11.00;;
2001;SDS011;1003;48.002;7.788;2022-07-21T00:27:30;15.27;;;11.97;;
2001;SDS011;1003;48.002;7.788;2022-07-21T00:29:57;14.80;;;10.90;;
2001;SDS011;1003;48.002;7.788;2022-07-21T00:32:26;16.80;;;12.83;;
2001;SDS011;1003;48.002;7.788;2022-07-21T00:34:53;15.77;;;11.93;;
2001;SDS011;1003;48.002;7.788;2022-07-21T00:37:20;15.53;;;11.83;;
2001;SDS011;1003;48.002;7.788;2022-07-21T00:39:50;15.50;;;12.43;;
2001;SDS011;1003;48.002;7.788;2022-07-21T00:42:20;16.40;;;11.90;;
2001;SDS011;1003;48.002;7.788;2022-07-21T00:44:49;16.30;;;12.20;;
2001;SDS011;1003;48.002;7.788;2022-07-21T00:47:18;16.00;;;12.43;;
2001;SDS011;1003;48.002;7.788;2022-07-21T00:49:46;16.13;;;12.17;;
2001;SDS011;1003;48.002;7.788;2022-07-21T00:52:13;15.23;;;12.57;;
2001;SDS011;1003;48.002;7.788;2022-07-21T00:54:41;16.93;;;13.23;;
2001;SDS011;1003;48.002;7.788;2022-07-21T00:57:10;17.63;;;13.07;;
2001;SDS011;1003;48.002;7.788;2022-07-21T00:59:38;16.20;;;13.27;;
2001;SDS011;1003;48.002;7.788;2022-07-21T01:02:06;17.20;;;13.27;;
2001;SDS011;1003;48.002;7.788;2022-07-21T01:04:34;16.77;;;13.50;;
2001;SDS011;1003;48.002;7.788;2022-07-21T01:07:02;18.97;;;13.87;;
2001;SDS011;1003;48.002;7.788;2022-07-21T01:09:32;16.17;;;12.30;;
2001;SDS011;1003;48.002;7.788;2022-07-21T01:12:00;16.40;;;13.67;;
2001;SDS011;1003;48.002;7.788;2022-07-21T01:14:31;16.97;;;13.10;;
2001;SDS011;1003;48.002;7.788;2022-07-21T01:17:00;15.77;;;12.37;;
2001;SDS011;1003;48.002;7.788;2022-07-21T01:19:29;17.90;;;13.27;;
2001;SDS011;1003;48.002;7.788;2022-07-21T01:21:58;15.43;;;12.33;;
2001;SDS011;1003;48.002;7.788;2022-07-21T01:24:25;18.13;;;12.60;;
2001;SDS011;1003;48.002;7.788;2022-07-21T01:26:52;18.03;;;11.83;;
2001;SDS011;1003;48.002;7.788;2022-07-21T01:29:20;16.50;;;12.90;;
2001;SDS011;1003;48.002;7.788;2022-07-21T01:31:48;17.33;;;12.77;;
2001;SDS011;1003;48.002;7.788;2022-07-21T01:34:16;15.80;;;12.77;;
2001;SDS011;1003;48.002;7.788;2022-07-21T01:36:44;19.07;;;13.70;;
2001;SDS011;1003;48.002;7.788;2022-07-21T01:39:13;15.17;;;12.67;;
2001;SDS011;1003;48.002;7.788;2022-07-21T01:41:58;16.57;;;12.40;;
2001;SDS011;1003;48.002;7.788;2022-07-21T01:44:25;17.10;;;13.17;;
2001;SDS011;1003;48.002;7.788;2022-07-21T01:46:53;17.03;;;13.43;;
2001;SDS011;1003;48.002;7.788;2022-07-21T01:49:20;18.67;;;13.73;;
2001;SDS011;1003;48.002;7.788;2022-07-21T01:51:48;20.57;;;14.23;;
2001;SDS011;1003;48.002;7.788;2022-07-21T01:54:17;19.30;;;14.10;;
2001;SDS011;1003;48.002;7.788;2022-07-21T01:56:45;19.07;;;14.43;;
2001;SDS011;1003;48.002;7.788;2022-07-21T01:59:12;17.23;;;13.07;;
2001;SDS011;1003;48.002;7.788;2022-07-21T02:01:39;17.03;;;13.17;;
2001;SDS011;1003;48.002;7.788;2022-07-21T02:04:06;16.30;;;13.60;;
2001;SDS011;1003;48.002;7.788;2022-07-21T02:06:33;16.27;;;12.87;;
2001;SDS011;1003;48.002;7.788;2022-07-21T02:09:01;19.33;;;14.60;;
2001;SDS011;1003;48.002;7.788;2022-07-21T02:11:30;19.70;;;13.90;;
2001;SDS011;1003;48.002;7.788;2022-07-21T02:13:57;20.47;;;14.77;;
2001;SDS011;1003;48.002;7.788;2022-07-21T02:16:24;20.83;;;15.10;;
2001;SDS011;1003;48.002;7.788;2022-07-21T02:18:51;19.70;;;15.30;;
2001;SDS011;1003;48.002;7.788;2022-07-21T02:21:18;20.60;;;15.53;;
2001;SDS011;1003;48.002;7.788;2022-07-21T02:23:46;18.93;;;14.90;;
2001;SDS011;1003;48.002;7.788;2022-07-21T02:26:13;18.30;;;14.40;;
2001;SDS011;1003;48.002;7.788;2022-07-21T02:28:42;19.40;;;14.63;;
2001;SDS011;1003;48.002;7.788;2022-07-21T02:31:09;18.90;;;14.83;;
2001;SDS011;1003;48.002;7.788;2022-07-21T02:33:36;20.97;;;15.63;;
2001;SDS011;1003;48.002;7.788;2022-07-21T02:36:03;18.47;;;14.30;;
2001;SDS011;1003;48.002;7.788;2022-07-21T02:38:31;18.40;;;14.40;;
2001;SDS011;1003;48.002;7.788;2022-07-21T02:40:58;21.20;;;14.43;;
2001;SDS011;1003;48.002;7.788;2022-07-21T02:43:25;20.00;;;14.03;;
2001;SDS011;1003;48.002;7.788;2022-07-21T02:45:54;18.63;;;14.27;;
2001;SDS011;1003;48.002;7.788;2022-07-21T02:48:21;19.20;;;14.07;;
2001;SDS011;1003;48.002;7.788;2022-07-21T02:50:48;18.73;;;13.93;;
2001;SDS011;1003;48.002;7.788;2022-07-21T02:53:16;15.70;;;13.23;;
2001;SDS011;1003;48.002;7.788;2022-07-21T02:55:47;17.83;;;13.80;;
2001;SDS011;1003;48.002;7.788;2022-07-21T02:58:17;16.70;;;13.63;;
2001;SDS011;1003;48.002;7.788;2022-07-21T03:00:48;18.20;;;14.30;;
2001;SDS011;1003;48.002;7.788;2022-07-21T03:03:19;19.30;;;14.17;;
2001;SDS011;1003;48.002;7.788;2022-07-21T03:05:49;22.03;;;14.23;;
2001;SDS011;1003;48.002;7.788;2022-07-21T03:08:17;17.37;;;14.00;;
2001;SDS011;1003;48.002;7.788;2022-07-21T03:10:48;18.70;;;14.13;;
2001;SDS011;1003;48.002;7.788;2022-07-21T03:13:16;18.33;;;13.80;;
2001;SDS011;1003;48.002;7.788;2022-07-21T03:15:43;16.97;;;13.73;;
2001;SDS011;1003;48.002;7.788;2022-07-21T03:18:11;17.57;;;14.10;;
2001;SDS011;1003;48.002;7.788;2022-07-21T03:20:40;19.17;;;15.10;;
2001;SDS011;1003;48.002;7.788;2022-07-21T03:23:10;16.70;;;13.63;;
2001;SDS011;1003;48.002;7.788;2022-07-21T03:25:38;18.87;;;14.90;;
2001;SDS011;1003;48.002;7.788;2022-07-21T03:28:05;18.57;;;14.70;;
2001;SDS011;1003;48.002;7.788;2022-07-21T03:30:33;23.17;;;16.93;;
2001;SDS011;1003;48.002;7.788;2022-07-21T03:33:01;24.93;;;17.23;;
2001;SDS011;1003;48.002;7.788;2022-07-21T03:35:28;22.47;;;17.10;;
2001;SDS011;1003;48.002;7.788;2022-07-21T03:37:57;19.40;;;15.20;;
2001;SDS011;1003;48.002;7.788;2022-07-21T03:40:27;23.40;;;16.23;;
2001;SDS011;1003;48.002;7.788;2022-07-21T03:42:57;16.53;;;14.17;;
2001;SDS011;1003;48.002;7.788;2022-07-21T03:45:28;22.17;;;15.90;;
2001;SDS011;1003;48.002;7.788;2022-07-21T03:47:57;22.57;;;15.33;;
2001;SDS011;1003;48.002;7.788;2022-07-21T03:50:25;19.57;;;14.80;;
2001;SDS011;1003;48.002;7.788;2022-07-21T03:52:53;20.57;;;14.47;;
2001;SDS011;1003;48.002;7.788;2022-07-21T03:55:21;19.13;;;14.70;;
2001;SDS011;1003;48.002;7.788;2022-07-21T03:57:50;20.07;;;14.80;;
2001;SDS011;1003;48.002;7.788;2022-07-21T04:00:20;20.83;;;16.13;;
2001;SDS011;1003;48.002;7.788;2022-07-21T04:02:55;21.87;;;15.43;;
2001;SDS011;1003;48.002;7.788;2022-07-21T04:05:23;20.03;;;15.60;;
2001;SDS011;1003;48.002;7.788;2022-07-21T04:07:52;21.97;;;15.80;;
2001;SDS011;1003;48.002;7.788;2022-07-21T04:10:20;24.53;;;17.63;;
2001;SDS011;1003;48.002;7.788;2022-07-21T04:12:51;25.17;;;17.50;;
2001;SDS011;1003;48.002;7.788;2022-07-21T04:15:19;24.13;;;17.87;;
2001;SDS011;1003;48.002;7.788;2022-07-21T04:17:46;21.10;;;15.47;;
2001;SDS011;1003;48.002;7.788;2022-07-21T04:20:14;20.00;;;15.33;;
2001;SDS011;1003;48.002;7.788;2022-07-21T04:22:43;22.90;;;16.07;;
2001;SDS011;1003;48.002;7.788;2022-07-21T04:25:12;19.17;;;15.43;;
2001;SDS011;1003;48.002;7.788;2022-07-21T04:27:42;24.37;;;17.27;;
2001;SDS011;1003;48.002;7.788;2022-07-21T04:30:12;19.23;;;15.57;;
2001;SDS011;1003;48.002;7.788;2022-07-21T04:32:41;23.47;;;16.87;;
2001;SDS011;1003;48.002;7.788;2022-07-21T04:35:08;20.27;;;15.03;;
2001;SDS011;1003;48.002;7.788;2022-07-21T04:37:37;20.33;;;15.77;;
2001;SDS011;1003;48.002;7.788;2022-07-21T04:40:05;20.60;;;15.83;;
2001;SDS011;1003;48.002;7.788;2022-07-21T04:42:34;17.67;;;14.30;;
2001;SDS011;1003;48.002;7.788;2022-07-21T04:45:04;21.40;;;15.53;;
2001;SDS011;1003;48.002;7.788;2022-07-21T04:47:41;19.90;;;13.73;;
2001;SDS011;1003;48.002;7.788;2022-07-21T04:50:10;17.50;;;14.17;;
2001;SDS011;1003;48.002;7.788;2022-07-21T04:52:39;17.97;;;14.00;;
2001;SDS011;1003;48.002;7.788;2022-07-21T04:55:08;15.67;;;13.00;;
2001;SDS011;1003;48.002;7.788;2022-07-21T04:57:37;16.77;;;12.93;;
2001;SDS011;1003;48.002;7.788;2022-07-21T05:00:07;14.27;;;12.43;;
2001;SDS011;1003;48.002;7.788;2022-07-21T05:02:37;18.00;;;14.87;;
2001;SDS011;1003;48.002;7.788;2022-07-21T05:05:05;17.33;;;13.87;;
2001;SDS011;1003;48.002;7.788;2022-07-21T05:07:34;15.70;;;12.80;;
2001;SDS011;1003;48.002;7.788;2022-07-21T05:10:03;15.23;;;12.47;;
2001;SDS011;1003;48.002;7.788;2022-07-21T05:12:31;13.97;;;11.70;;
2001;SDS011;1003;48.002;7.788;2022-07-21T05:14:59;12.40;;;10.47;;
2001;SDS011;1003;48.002;7.788;2022-07-21T05:17:27;12.30;;;10.80;;
2001;SDS011;1003;48.002;7.788;2022-07-21T05:19:55;12.27;;;10.03;;
2001;SDS011;1003;48.002;7.788;2022-07-21T05:22:22;13.73;;;10.93;;
2001;SDS011;1003;48.002;7.788;2022-07-21T05:24:49;13.67;;;9.17;;
2001;SDS011;1003;48.002;7.788;2022-07-21T05:27:16;13.80;;;10.43;;
2001;SDS011;1003;48.002;7.788;2022-07-21T05:29:43;10.77;;;9.68;;
2001;SDS011;1003;48.002;7.788;2022-07-21T05:32:10;11.73;;;10.27;;
2001;SDS011;1003;48.002;7.788;2022-07-21T05:34:39;10.77;;;9.32;;
2001;SDS011;1003;48.002;7.788;2022-07-21T05:37:06;12.25;;;9.90;;
2001;SDS011;1003;48.002;7.788;2022-07-21T05:39:33;11.15;;;9.98;;
2001;SDS011;1003;48.002;7.788;2022-07-21T05:42:00;10.15;;;9.10;;
2001;SDS011;1003;48.002;7.788;2022-07-21T05:44:28;10.43;;;9.32;;
2001;SDS011;1003;48.002;7.788;2022-07-21T05:46:55;11.43;;;10.02;;
2001;SDS011;1003;48.002;7.788;2022-07-21T05:49:22;10.52;;;9.52;;
2001;SDS011;1003;48.002;7.788;2022-07-21T05:51:51;9.85;;;8.90;;
2001;SDS011;1003;48.002;7.788;2022-07-21T05:54:18;10.57;;;9.18;;
2001;SDS011;1003;48.002;7.788;2022-07-21T05:56:45;12.07;;;9.20;;
2001;SDS011;1003;48.002;7.788;2022-07-21T05:59:12;10.02;;;9.02;;
2001;SDS011;1003;48.002;7.788;2022-07-21T06:01:39;11.15;;;9.15;;
2001;SDS011;1003;48.002;7.788;2022-07-21T06:04:06;8.43;;;7.65;;
2001;SDS011;1003;48.002;7.788;2022-07-21T06:06:33;9.27;;;8.15;;
2001;SDS011;1003;48.002;7.788;2022-07-21T06:09:02;10.45;;;8.63;;
2001;SDS011;1003;48.002;7.788;2022-07-21T06:11:29;9.27;;;8.23;;
2001;SDS011;1003;48.002;7.788;2022-07-21T06:13:56;8.82;;;8.02;;
2001;SDS011;1003;48.002;7.788;2022-07-21T06:16:23;9.23;;;8.30;;
2001;SDS011;1003;48.002;7.788;2022-07-21T06:18:50;8.93;;;8.00;;
2001;SDS011;1003;48.002;7.788;2022-07-21T06:21:17;9.07;;;8.18;;
2001;SDS011;1003;48.002;7.788;2022-07-21T06:23:44;8.75;;;7.85;;
2001;SDS011;1003;48.002;7.788;2022-07-21T06:26:13;8.73;;;7.75;;
2001;SDS011;1003;48.002;7.788;2022-07-21T06:28:40;8.93;;;8.02;;
2001;SDS011;1003;48.002;7.788;2022-07-21T06:31:07;9.38;;;8.32;;
2001;SDS011;1003;48.002;7.788;2022-07-21T06:33:34;9.38;;;8.40;;
2001;SDS011;1003;48.002;7.788;2022-07-21T06:36:01;9.23;;;8.23;;
2001;SDS011;1003;48.002;7.788;2022-07-21T06:38:29;8.77;;;7.88;;
2001;SDS011;1003;48.002;7.788;2022-07-21T06:40:56;9.73;;;8.32;;
2001;SDS011;1003;48.002;7.788;2022-07-21T06:43:24;9.98;;;8.00;;
2001;SDS011;1003;48.002;7.788;2022-07-21T06:45:51;9.00;;;7.97;;
2001;SDS011;1003;48.002;7.788;2022-07-21T06:48:19;9.18;;;7.40;;
2001;SDS011;1003;48.002;7.788;2022-07-21T06:50:47;7.85;;;6.88;;
2001;SDS011;1003;48.002;7.788;2022-07-21T06:53:14;8.35;;;7.30;;
2001;SDS011;1003;48.002;7.788;2022-07-21T06:55:41;8.27;;;7.47;;
2001;SDS011;1003;48.002;7.788;2022-07-21T06:58:09;9.10;;;7.45;;
2001;SDS011;1003;48.002;7.788;2022-07-21T07:00:39;9.52;;;8.13;;
2001;SDS011;1003;48.002;7.788;2022-07-21T07:03:06;7.93;;;7.15;;
2001;SDS011;1003;48.002;7.788;2022-07-21T07:05:34;8.73;;;7.82;;
2001;SDS011;1003;48.002;7.788;2022-07-21T07:08:02;10.35;;;7.78;;
2001;SDS011;1003;48.002;7.788;2022-07-21T07:10:30;10.18;;;8.02;;
2001;SDS011;1003;48.002;7.788;2022-07-21T07:12:57;9.63;;;8.60;;
2001;SDS011;1003;48.002;7.788;2022-07-21T07:15:25;11.10;;;8.27;;
2001;SDS011;1003;48.002;7.788;2022-07-21T07:17:54;11.30;;;8.90;;
2001;SDS011;1003;48.002;7.788;2022-07-21T07:20:22;9.33;;;8.37;;
2001;SDS011;1003;48.002;7.788;2022-07-21T07:22:49;9.73;;;8.67;;
2001;SDS011;1003;48.002;7.788;2022-07-21T07:25:17;10.20;;;8.40;;
2001;SDS011;1003;48.002;7.788;2022-07-21T07:27:44;8.87;;;8.07;;
2001;SDS011;1003;48.002;7.788;2022-07-21T07:30:13;11.00;;;8.40;;
2001;SDS011;1003;48.002;7.788;2022-07-21T07:32:41;9.10;;;8.20;;
2001;SDS011;1003;48.002;7.788;2022-07-21T07:35:10;9.27;;;8.30;;
2001;SDS011;1003;48.002;7.788;2022-07-21T07:37:38;10.67;;;8.87;;
2001;SDS011;1003;48.002;7.788;2022-07-21T07:40:08;12.10;;;8.63;;
2001;SDS011;1003;48.002;7.788;2022-07-21T07:42:38;10.83;;;8.80;;
2001;SDS011;1003;48.002;7.788;2022-07-21T07:45:06;9.90;;;8.07;;
2001;SDS011;1003;48.002;7.788;2022-07-21T07:47:35;11.40;;;8.70;;
2001;SDS011;1003;48.002;7.788;2022-07-21T07:50:03;9.00;;;7.50;;
2001;SDS011;1003;48.002;7.788;2022-07-21T07:52:34;8.77;;;7.80;;
2001;SDS011;1003;48.002;7.788;2022-07-21T07:55:02;9.70;;;8.00;;
2001;SDS011;1003;48.002;7.788;2022-07-21T07:57:33;10.27;;;8.20;;
2001;SDS011;1003;48.002;7.788;2022-07-21T08:00:00;8.73;;;7.83;;
2001;SDS011;1003;48.002;7.788;2022-07-21T08:02:29;8.60;;;7.13;;
2001;SDS011;1003;48.002;7.788;2022-07-21T08:04:56;8.50;;;7.60;;
2001;SDS011;1003;48.002;7.788;2022-07-21T08:07:23;8.17;;;7.30;;
2001;SDS011;1003;48.002;7.788;2022-07-21T08:09:52;8.00;;;6.82;;
2001;SDS011;1003;48.002;7.788;2022-07-21T08:12:19;8.15;;;7.32;;
2001;SDS011;1003;48.002;7.788;2022-07-21T08:14:46;8.60;;;7.47;;
2001;SDS011;1003;48.002;7.788;2022-07-21T08:17:13;7.75;;;6.93;;
2001;SDS011;1003;48.002;7.788;2022-07-21T08:19:41;9.70;;;7.72;;
2001;SDS011;1003;48.002;7.788;2022-07-21T08:22:08;8.23;;;6.95;;
2001;SDS011;1003;48.002;7.788;2022-07-21T08:24:35;7.88;;;7.00;;
2001;SDS011;1003;48.002;7.788;2022-07-21T08:27:05;10.45;;;7.13;;
2001;SDS011;1003;48.002;7.788;2022-07-21T08:29:33;7.65;;;6.85;;
2001;SDS011;1003;48.002;7.788;2022-07-21T08:32:00;7.85;;;7.03;;
2001;SDS011;1003;48.002;7.788;2022-07-21T08:34:27;7.60;;;6.25;;
2001;SDS011;1003;48.002;7.788;2022-07-21T08:36:54;8.15;;;7.28;;
2001;SDS011;1003;48.002;7.788;2022-07-21T08:39:24;7.63;;;6.55;;
2001;SDS011;1003;48.002;7.788;2022-07-21T08:41:52;9.45;;;7.93;;
2001;SDS011;1003;48.002;7.788;2022-07-21T08:44:21;8.55;;;7.68;;
2001;SDS011;1003;48.002;7.788;2022-07-21T08:46:49;8.07;;;7.28;;
2001;SDS011;1003;48.002;7.788;2022-07-21T08:49:19;9.95;;;7.72;;
2001;SDS011;1003;48.002;7.788;2022-07-21T08:51:48;8.03;;;7.23;;
2001;SDS011;1003;48.002;7.788;2022-07-21T08:54:16;8.40;;;6.83;;
2001;SDS011;1003;48.002;7.788;2022-07-21T08:56:43;8.17;;;7.23;;
2001;SDS011;1003;48.002;7.788;2022-07-21T08:59:11;7.90;;;6.93;;
2001;SDS011;1003;48.002;7.788;2022-07-21T09:01:39;8.80;;;7.27;;
2001;SDS011;1003;48.002;7.788;2022-07-21T09:06:52;8.43;;;6.53;;
2001;SDS011;1003;48.002;7.788;2022-07-21T09:09:23;7.60;;;5.67;;
2001;SDS011;1003;48.002;7.788;2022-07-21T09:11:52;6.53;;;5.50;;
2001;SDS011;1003;48.002;7.788;2022-07-21T09:14:21;7.57;;;6.40;;
2001;SDS011;1003;48.002;7.788;2022-07-21T09:16:53;6.87;;;5.77;;
2001;SDS011;1003;48.002;7.788;2022-07-21T09:19:23;7.43;;;5.80;;
2001;SDS011;1003;48.002;7.788;2022-07-21T09:21:52;8.30;;;6.60;;
2001;SDS011;1003;48.002;7.788;2022-07-21T09:24:23;8.27;;;6.43;;
2001;SDS011;1003;48.002;7.788;2022-07-21T09:26:59;7.00;;;5.60;;
2001;SDS011;1003;48.002;7.788;2022-07-21T09:29:38;7.13;;;6.10;;
2001;SDS011;1003;48.002;7.788;2022-07-21T09:32:17;7.40;;;6.10;;
2001;SDS011;1003;48.002;7.788;2022-07-21T09:34:51;7.57;;;6.13;;
2001;SDS011;1003;48.002;7.788;2022-07-21T09:37:21;8.70;;;5.80;;
2001;SDS011;1003;48.002;7.788;2022-07-21T09:39:50;7.87;;;5.67;;
2001;SDS011;1003;48.002;7.788;2022-07-21T09:42:21;6.23;;;5.63;;
2001;SDS011;1003;48.002;7.788;2022-07-21T09:44:51;6.47;;;5.80;;
2001;SDS011;1003;48.002;7.788;2022-07-21T09:47:23;5.73;;;5.13;;
2001;SDS011;1003;48.002;7.788;2022-07-21T09:49:53;6.00;;;5.40;;
2001;SDS011;1003;48.002;7.788;2022-07-21T09:52:24;6.30;;;4.70;;
2001;SDS011;1003;48.002;7.788;2022-07-21T09:54:57;8.53;;;5.80;;
2001;SDS011;1003;48.002;7.788;2022-07-21T09:57:27;6.43;;;5.13;;
2001;SDS011;1003;48.002;7.788;2022-07-21T09:59:55;6.30;;;5.20;;
2001;SDS011;1003;48.002;7.788;2022-07-21T10:02:25;5.17;;;4.50;;
2001;SDS011;1003;48.002;7.788;2022-07-21T10:04:56;5.47;;;4.90;;
2001;SDS011;1003;48.002;7.788;2022-07-21T10:07:25;7.70;;;4.90;;
2001;SDS011;1003;48.002;7.788;2022-07-21T10:09:54;4.67;;;3.83;;
2001;SDS011;1003;48.002;7.788;2022-07-21T10:12:23;7.03;;;5.00;;
2001;SDS011;1003;48.002;7.788;2022-07-21T10:14:52;5.43;;;4.23;;
2001;SDS011;1003;48.002;7.788;2022-07-21T10:17:21;4.60;;;3.87;;
2001;SDS011;1003;48.002;7.788;2022-07-21T10:19:53;5.27;;;4.20;;
2001;SDS011;1003;48.002;7.788;2022-07-21T10:22:36;4.30;;;3.90;;
2001;SDS011;1003;48.002;7.788;2022-07-21T10:25:19;4.07;;;3.40;;
2001;SDS011;1003;48.002;7.788;2022-07-21T10:30:44;4.77;;;3.70;;
2001;SDS011;1003;48.002;7.788;2022-07-21T10:33:13;3.73;;;3.40;;
2001;SDS011;1003;48.002;7.788;2022-07-21T10:35:44;3.70;;;3.40;;
2001;SDS011;1003;48.002;7.788;2022-07-21T10:38:24;5.10;;;3.63;;
2001;SDS011;1003;48.002;7.788;2022-07-21T10:40:54;5.13;;;3.73;;
2001;SDS011;1003;48.002;7.788;2022-07-21T10:43:35;3.80;;;3.50;;
2001;SDS011;1003;48.002;7.788;2022-07-21T10:49:06;4.77;;;3.17;;
2001;SDS011;1003;48.002;7.788;2022-07-21T10:51:37;4.97;;;3.43;;
2001;SDS011;1003;48.002;7.788;2022-07-21T10:54:15;5.20;;;3.23;;
2001;SDS011;1003;48.002;7.788;2022-07-21T11:03:02;3.70;;;3.40;;
2001;SDS011;1003;48.002;7.788;2022-07-21T11:05:39;5.47;;;3.73;;
2001;SDS011;1003;48.002;7.788;2022-07-21T11:08:46;3.87;;;3.47;;
2001;SDS011;1003;48.002;7.788;2022-07-21T11:11:16;4.50;;;3.80;;
2001;SDS011;1003;48.002;7.788;2022-07-21T11:19:49;4.57;;;3.47;;
2001;SDS011;1003;48.002;7.788;2022-07-21T11:22:19;3.23;;;2.93;;
2001;SDS011;1003;48.002;7.788;2022-07-21T11:24:49;5.47;;;3.60;;
2001;SDS011;1003;48.002;7.788;2022-07-21T11:27:21;3.30;;;3.00;;
2001;SDS011;1003;48.002;7.788;2022-07-21T11:29:51;3.77;;;3.30;;
2001;SDS011;1003;48.002;7.788;2022-07-21T11:32:21;3.63;;;3.20;;
2001;SDS011;1003;48.002;7.788;2022-07-21T11:34:49;4.17;;;3.53;;
2001;SDS011;1003;48.002;7.788;2022-07-21T11:37:19;3.60;;;3.30;;
2001;SDS011;1003;48.002;7.788;2022-07-21T11:39:57;4.17;;;2.80;;
2001;SDS011;1003;48.002;7.788;2022-07-21T11:42:25;3.50;;;3.20;;
2001;SDS011;1003;48.002;7.788;2022-07-21T11:44:55;4.90;;;3.50;;
2001;SDS011;1003;48.002;7.788;2022-07-21T11:47:23;4.00;;;3.40;;
2001;SDS011;1003;48.002;7.788;2022-07-21T11:49:53;3.30;;;3.00;;
2001;SDS011;1003;48.002;7.788;2022-07-21T11:52:24;3.60;;;3.30;;
2001;SDS011;1003;48.002;7.788;2022-07-21T11:54:53;2.80;;;2.60;;
2001;SDS011;1003;48.002;7.788;2022-07-21T11:57:24;3.60;;;2.77;;
2001;SDS011;1003;48.002;7.788;2022-07-21T11:59:53;3.63;;;3.30;;
2001;SDS011;1003;48.002;7.788;2022-07-21T12:02:23;4.63;;;3.33;;
2001;SDS011;1003;48.002;7.788;2022-07-21T12:04:53;4.03;;;3.33;;
2001;SDS011;1003;48.002;7.788;2022-07-21T12:07:24;4.73;;;3.20;;
2001;SDS011;1003;48.002;7.788;2022-07-21T12:09:55;3.30;;;3.00;;
2001;SDS011;1003;48.002;7.788;2022-07-21T12:12:28;3.63;;;3.23;;
2001;SDS011;1003;48.002;7.788;2022-07-21T12:14:58;4.27;;;3.10;;
2001;SDS011;1003;48.002;7.788;2022-07-21T12:17:42;5.53;;;3.40;;
2001;SDS011;1003;48.002;7.788;2022-07-21T12:20:11;3.73;;;3.33;;
2001;SDS011;1003;48.002;7.788;2022-07-21T12:22:40;4.93;;;3.30;;
2001;SDS011;1003;48.002;7.788;2022-07-21T12:25:11;5.13;;;3.00;;
2001;SDS011;1003;48.002;7.788;2022-07-21T12:27:43;3.60;;;3.30;;
2001;SDS011;1003;48.002;7.788;2022-07-21T12:33:01;4.37;;;3.47;;
2001;SDS011;1003;48.002;7.788;2022-07-21T12:35:34;3.00;;;2.80;;
2001;SDS011;1003;48.002;7.788;2022-07-21T12:38:03;4.90;;;3.20;;
2001;SDS011;1003;48.002;7.788;2022-07-21T12:40:35;3.77;;;2.90;;
2001;SDS011;1003;48.002;7.788;2022-07-21T12:43:07;3.33;;;3.10;;
2001;SDS011;1003;48.002;7.788;2022-07-21T12:45:46;3.70;;;3.40;;
2001;SDS011;1003;48.002;7.788;2022-07-21T12:48:20;4.80;;;3.40;;
2001;SDS011;1003;48.002;7.788;2022-07-21T12:51:01;4.43;;;3.40;;
2001;SDS011;1003;48.002;7.788;2022-07-21T12:53:40;4.40;;;3.30;;
2001;SDS011;1003;48.002;7.788;2022-07-21T12:56:11;3.87;;;3.30;;
2001;SDS011;1003;48.002;7.788;2022-07-21T12:58:43;3.73;;;2.90;;
2001;SDS011;1003;48.002;7.788;2022-07-21T13:01:11;3.43;;;3.13;;
2001;SDS011;1003;48.002;7.788;2022-07-21T13:03:40;3.60;;;3.30;;
2001;SDS011;1003;48.002;7.788;2022-07-21T13:06:07;3.33;;;3.03;;
2001;SDS011;1003;48.002;7.788;2022-07-21T13:08:35;5.50;;;3.50;;
2001;SDS011;1003;48.002;7.788;2022-07-21T13:11:04;4.50;;;3.10;;
2001;SDS011;1003;48.002;7.788;2022-07-21T13:13:32;3.80;;;3.20;;
2001;SDS011;1003;48.002;7.788;2022-07-21T13:16:01;5.30;;;3.63;;
2001;SDS011;1003;48.002;7.788;2022-07-21T13:18:29;3.23;;;3.03;;
2001;SDS011;1003;48.002;7.788;2022-07-21T13:20:57;4.13;;;3.03;;
2001;SDS011;1003;48.002;7.788;2022-07-21T13:23:24;4.87;;;3.70;;
2001;SDS011;1003;48.002;7.788;2022-07-21T13:25:51;5.33;;;3.40;;
2001;SDS011;1003;48.002;7.788;2022-07-21T13:28:18;4.87;;;3.27;;
2001;SDS011;1003;48.002;7.788;2022-07-21T13:30:46;3.83;;;3.10;;
2001;SDS011;1003;48.002;7.788;2022-07-21T13:33:14;3.70;;;3.20;;
2001;SDS011;1003;48.002;7.788;2022-07-21T13:35:42;3.63;;;3.30;;
2001;SDS011;1003;48.002;7.788;2022-07-21T13:38:10;5.87;;;3.57;;
2001;SDS011;1003;48.002;7.788;2022-07-21T13:40:37;3.57;;;3.27;;
2001;SDS011;1003;48.002;7.788;2022-07-21T13:43:04;3.63;;;3.10;;
2001;SDS011;1003;48.002;7.788;2022-07-21T13:45:32;4.30;;;3.07;;
2001;SDS011;1003;48.002;7.788;2022-07-21T13:47:59;4.30;;;3.40;;
2001;SDS011;1003;48.002;7.788;2022-07-21T13:50:28;4.37;;;3.50;;
2001;SDS011;1003;48.002;7.788;2022-07-21T13:52:55;3.43;;;2.80;;
2001;SDS011;1003;48.002;7.788;2022-07-21T13:55:22;3.73;;;3.00;;
2001;SDS011;1003;48.002;7.788;2022-07-21T13:57:49;3.43;;;3.10;;
2001;SDS011;1003;48.002;7.788;2022-07-21T14:00:16;3.97;;;2.97;;
2001;SDS011;1003;48.002;7.788;2022-07-21T14:02:44;4.03;;;3.10;;
2001;SDS011;1003;48.002;7.788;2022-07-21T14:05:13;3.27;;;2.90;;
2001;SDS011;1003;48.002;7.788;2022-07-21T14:07:41;4.60;;;3.43;;
2001;SDS011;1003;48.002;7.788;2022-07-21T14:10:09;4.37;;;3.27;;
2001;SDS011;1003;48.002;7.788;2022-07-21T14:12:36;3.50;;;3.20;;
2001;SDS011;1003;48.002;7.788;2022-07-21T14:15:04;3.60;;;3.30;;
2001;SDS011;1003;48.002;7.788;2022-07-21T14:17:32;3.83;;;3.03;;
2001;SDS011;1003;48.002;7.788;2022-07-21T14:19:59;4.47;;;3.27;;
2001;SDS011;1003;48.002;7.788;2022-07-21T14:22:26;4.50;;;3.33;;
2001;SDS011;1003;48.002;7.788;2022-07-21T14:24:55;3.10;;;2.80;;
2001;SDS011;1003;48.002;7.788;2022-07-21T14:27:39;4.27;;;3.27;;
2001;SDS011;1003;48.002;7.788;2022-07-21T14:30:06;3.50;;;3.20;;
2001;SDS011;1003;48.002;7.788;2022-07-21T14:32:34;3.63;;;3.07;;
2001;SDS011;1003;48.002;7.788;2022-07-21T14:35:02;3.33;;;3.00;;
2001;SDS011;1003;48.002;7.788;2022-07-21T14:37:30;3.60;;;3.30;;
2001;SDS011;1003;48.002;7.788;2022-07-21T14:39:59;3.30;;;3.00;;
2001;SDS011;1003;48.002;7.788;2022-07-21T14:42:26;3.30;;;3.00;;
2001;SDS011;1003;48.002;7.788;2022-07-21T14:44:53;4.23;;;2.93;;
2001;SDS011;1003;48.002;7.788;2022-07-21T14:47:21;3.20;;;2.90;;
2001;SDS011;1003;48.002;7.788;2022-07-21T14:49:48;4.83;;;3.70;;
2001;SDS011;1003;48.002;7.788;2022-07-21T14:52:15;4.03;;;3.30;;
2001;SDS011;1003;48.002;7.788;2022-07-21T14:54:42;4.17;;;3.67;;
2001;SDS011;1003;48.002;7.788;2022-07-21T14:57:11;4.07;;;3.30;;
2001;SDS011;1003;48.002;7.788;2022-07-21T14:59:38;3.50;;;3.20;;
2001;SDS011;1003;48.002;7.788;2022-07-21T15:02:06;3.93;;;3.43;;
2001;SDS011;1003;48.002;7.788;2022-07-21T15:04:33;3.87;;;3.40;;
2001;SDS011;1003;48.002;7.788;2022-07-21T15:07:00;3.90;;;3.50;;
2001;SDS011;1003;48.002;7.788;2022-07-21T15:09:28;3.60;;;3.30;;
2001;SDS011;1003;48.002;7.788;2022-07-21T15:11:56;3.97;;;3.57;;
2001;SDS011;1003;48.002;7.788;2022-07-21T15:14:25;3.47;;;3.03;;
2001;SDS011;1003;48.002;7.788;2022-07-21T15:16:52;3.90;;;3.50;;
2001;SDS011;1003;48.002;7.788;2022-07-21T15:19:19;4.97;;;3.67;;
2001;SDS011;1003;48.002;7.788;2022-07-21T15:21:46;3.90;;;3.50;;
2001;SDS011;1003;48.002;7.788;2022-07-21T15:24:14;4.00;;;3.43;;
2001;SDS011;1003;48.002;7.788;2022-07-21T15:26:41;4.10;;;3.70;;
2001;SDS011;1003;48.002;7.788;2022-07-21T15:29:09;3.60;;;3.27;;
2001;SDS011;1003;48.002;7.788;2022-07-21T15:31:37;4.27;;;3.50;;
2001;SDS011;1003;48.002;7.788;2022-07-21T15:34:05;3.60;;;3.30;;
2001;SDS011;1003;48.002;7.788;2022-07-21T15:36:33;5.30;;;3.80;;
2001;SDS011;1003;48.002;7.788;2022-07-21T15:39:00;4.80;;;3.53;;